N2332E KMLB-KFRG
Flight info
| Callsign | N2332E |
|---|---|
| Flight time | N/A |
| Altitude | 38000 |
| Route | APOLO PETEE RAZZL GARIC ILM SWL SIE CAMRN CAMRN4 |
| Aircraft | C25C/M-VGDW/C |
Departure
| Time | 2026-04-25 01:37 |
|---|---|
| Airport | Melbourne Orlando International Airport (KMLB) |
Arrival
| Time | N/A |
|---|---|
| Airport | Republic Airport (KFRG) |
| Time | Latitude | Longitude | Altitude | Speed | Heading |
|---|---|---|---|---|---|
| 2026-04-25 01:18 | 28.10770 | -80.64788 | 32 ft | 0 kts | 173° |
| 2026-04-25 01:27 | 28.10748 | -80.64801 | 33 ft | 5 kts | 272° |
| 2026-04-25 01:28 | 28.10763 | -80.64862 | 35 ft | 7 kts | 238° |
| 2026-04-25 01:28 | 28.10736 | -80.64871 | 35 ft | 7 kts | 144° |
| 2026-04-25 01:28 | 28.10686 | -80.64905 | 35 ft | 13 kts | 250° |
| 2026-04-25 01:28 | 28.10683 | -80.64987 | 36 ft | 19 kts | 262° |
| 2026-04-25 01:29 | 28.10671 | -80.65164 | 36 ft | 26 kts | 268° |
| 2026-04-25 01:29 | 28.10661 | -80.65390 | 35 ft | 29 kts | 265° |
| 2026-04-25 01:29 | 28.10644 | -80.65619 | 32 ft | 29 kts | 262° |
| 2026-04-25 01:29 | 28.10639 | -80.65832 | 29 ft | 27 kts | 267° |
| 2026-04-25 01:30 | 28.10622 | -80.65978 | 28 ft | 0 kts | 210° |
| 2026-04-25 01:30 | 28.10619 | -80.65979 | 28 ft | 0 kts | 198° |
| 2026-04-25 01:36 | 28.10544 | -80.65949 | 27 ft | 25 kts | 117° |
| 2026-04-25 01:36 | 28.10554 | -80.65750 | 31 ft | 43 kts | 87° |
| 2026-04-25 01:37 | 28.10566 | -80.65050 | 86 ft | 129 kts | 92° |
| 2026-04-25 01:37 | 28.10640 | -80.63912 | 676 ft | 175 kts | 74° |
| 2026-04-25 01:37 | 28.11692 | -80.62967 | 1445 ft | 230 kts | 13° |
| 2026-04-25 01:37 | 28.13509 | -80.63160 | 1769 ft | 281 kts | 343° |
| 2026-04-25 01:38 | 28.15148 | -80.63843 | 2265 ft | 230 kts | 351° |
| 2026-04-25 01:38 | 28.16664 | -80.64009 | 2323 ft | 199 kts | 356° |
| 2026-04-25 01:38 | 28.17848 | -80.64144 | 2773 ft | 163 kts | 357° |
| 2026-04-25 01:38 | 28.19041 | -80.64240 | 2504 ft | 194 kts | 2° |
| 2026-04-25 01:39 | 28.20412 | -80.63517 | 2871 ft | 249 kts | 43° |
| 2026-04-25 01:39 | 28.21720 | -80.62008 | 3265 ft | 269 kts | 53° |
| 2026-04-25 01:39 | 28.22654 | -80.60216 | 3745 ft | 259 kts | 59° |
| 2026-04-25 01:39 | 28.23714 | -80.58605 | 4235 ft | 251 kts | 47° |
| 2026-04-25 01:40 | 28.24909 | -80.57201 | 4725 ft | 244 kts | 41° |
| 2026-04-25 01:40 | 28.26235 | -80.56043 | 5200 ft | 237 kts | 31° |
| 2026-04-25 01:40 | 28.27654 | -80.55179 | 5679 ft | 231 kts | 19° |
| 2026-04-25 01:40 | 28.29182 | -80.54725 | 6162 ft | 224 kts | 8° |
| 2026-04-25 01:41 | 28.30714 | -80.54422 | 6674 ft | 225 kts | 7° |
| 2026-04-25 01:41 | 28.32314 | -80.54086 | 7319 ft | 244 kts | 8° |
| 2026-04-25 01:41 | 28.34037 | -80.53677 | 7986 ft | 262 kts | 9° |
| 2026-04-25 01:41 | 28.35876 | -80.53247 | 8678 ft | 277 kts | 9° |
| 2026-04-25 01:42 | 28.37815 | -80.52788 | 9389 ft | 291 kts | 9° |
| 2026-04-25 01:42 | 28.39842 | -80.52312 | 10083 ft | 303 kts | 10° |
| 2026-04-25 01:42 | 28.41947 | -80.51816 | 10742 ft | 313 kts | 10° |
| 2026-04-25 01:42 | 28.44110 | -80.51311 | 11410 ft | 322 kts | 10° |
| 2026-04-25 01:43 | 28.46327 | -80.50789 | 12092 ft | 329 kts | 9° |
| 2026-04-25 01:43 | 28.48594 | -80.50258 | 12788 ft | 335 kts | 9° |
| 2026-04-25 01:43 | 28.50896 | -80.49718 | 13496 ft | 340 kts | 9° |
| 2026-04-25 01:43 | 28.53195 | -80.49176 | 14147 ft | 344 kts | 9° |
| 2026-04-25 01:44 | 28.55557 | -80.48623 | 14789 ft | 348 kts | 9° |
| 2026-04-25 01:44 | 28.57937 | -80.48060 | 15441 ft | 351 kts | 9° |
| 2026-04-25 01:44 | 28.60334 | -80.47493 | 16106 ft | 352 kts | 9° |
| 2026-04-25 01:44 | 28.62744 | -80.46937 | 16788 ft | 354 kts | 9° |
| 2026-04-25 01:45 | 28.65164 | -80.46364 | 17480 ft | 355 kts | 9° |
| 2026-04-25 01:45 | 28.67583 | -80.45784 | 18191 ft | 355 kts | 9° |
| 2026-04-25 01:45 | 28.69973 | -80.45190 | 18810 ft | 356 kts | 10° |
| 2026-04-25 01:45 | 28.72389 | -80.44549 | 19437 ft | 357 kts | 10° |
| 2026-04-25 01:46 | 28.74808 | -80.43891 | 20071 ft | 357 kts | 11° |
| 2026-04-25 01:46 | 28.77231 | -80.43229 | 20723 ft | 358 kts | 10° |
| 2026-04-25 01:46 | 28.79655 | -80.42557 | 21400 ft | 359 kts | 10° |
| 2026-04-25 01:46 | 28.82081 | -80.41886 | 22079 ft | 359 kts | 10° |
| 2026-04-25 01:47 | 28.84512 | -80.41200 | 22778 ft | 359 kts | 10° |
| 2026-04-25 01:47 | 28.86942 | -80.40519 | 23486 ft | 359 kts | 10° |
| 2026-04-25 01:47 | 28.89371 | -80.39825 | 24097 ft | 359 kts | 10° |
| 2026-04-25 01:47 | 28.91798 | -80.39137 | 24725 ft | 359 kts | 11° |
| 2026-04-25 01:48 | 28.94193 | -80.38454 | 25338 ft | 359 kts | 10° |
| 2026-04-25 01:48 | 28.96617 | -80.37767 | 25977 ft | 359 kts | 11° |
| 2026-04-25 01:48 | 28.99045 | -80.37079 | 26632 ft | 358 kts | 10° |
| 2026-04-25 01:48 | 29.01462 | -80.36390 | 27301 ft | 357 kts | 11° |
| 2026-04-25 01:49 | 29.03865 | -80.35708 | 27988 ft | 355 kts | 10° |
| 2026-04-25 01:49 | 29.06260 | -80.35022 | 28690 ft | 353 kts | 10° |
| 2026-04-25 01:49 | 29.08640 | -80.34343 | 29407 ft | 351 kts | 11° |
| 2026-04-25 01:49 | 29.10996 | -80.33666 | 30127 ft | 348 kts | 10° |
| 2026-04-25 01:50 | 29.13336 | -80.32991 | 30756 ft | 345 kts | 10° |
| 2026-04-25 01:50 | 29.15647 | -80.32316 | 31398 ft | 341 kts | 10° |
| 2026-04-25 01:50 | 29.17929 | -80.31635 | 32055 ft | 337 kts | 10° |
| 2026-04-25 01:50 | 29.20183 | -80.30956 | 32741 ft | 332 kts | 10° |
| 2026-04-25 01:51 | 29.22404 | -80.30284 | 33433 ft | 327 kts | 10° |
| 2026-04-25 01:51 | 29.24580 | -80.29620 | 34114 ft | 321 kts | 10° |
| 2026-04-25 01:51 | 29.26713 | -80.28957 | 34724 ft | 314 kts | 10° |
| 2026-04-25 01:51 | 29.28778 | -80.28308 | 35339 ft | 307 kts | 10° |
| 2026-04-25 01:52 | 29.30803 | -80.27657 | 35971 ft | 298 kts | 10° |
| 2026-04-25 01:52 | 29.32774 | -80.27009 | 36618 ft | 289 kts | 10° |
| 2026-04-25 01:52 | 29.34678 | -80.26372 | 37281 ft | 280 kts | 10° |
| 2026-04-25 01:52 | 29.36510 | -80.25740 | 37959 ft | 269 kts | 10° |
| 2026-04-25 01:53 | 29.38266 | -80.25118 | 38643 ft | 258 kts | 10° |
| 2026-04-25 01:53 | 29.39941 | -80.24508 | 39209 ft | 246 kts | 10° |
| 2026-04-25 01:53 | 29.41528 | -80.23906 | 39772 ft | 233 kts | 10° |
| 2026-04-25 01:53 | 29.43020 | -80.23317 | 40334 ft | 220 kts | 10° |
| 2026-04-25 01:54 | 29.44463 | -80.22739 | 40501 ft | 226 kts | 10° |
| 2026-04-25 01:54 | 29.45985 | -80.22134 | 40584 ft | 236 kts | 10° |
| 2026-04-25 01:54 | 29.47572 | -80.21517 | 40721 ft | 244 kts | 10° |
| 2026-04-25 01:54 | 29.49208 | -80.20897 | 40893 ft | 251 kts | 10° |
| 2026-04-25 01:55 | 29.50898 | -80.20267 | 40970 ft | 261 kts | 10° |
| 2026-04-25 01:55 | 29.52664 | -80.19617 | 41005 ft | 273 kts | 10° |
| 2026-04-25 01:55 | 29.54524 | -80.18949 | 41009 ft | 286 kts | 10° |
| 2026-04-25 01:55 | 29.56474 | -80.18262 | 41012 ft | 298 kts | 10° |
| 2026-04-25 01:56 | 29.58506 | -80.17556 | 41012 ft | 311 kts | 10° |
| 2026-04-25 01:56 | 29.60617 | -80.16837 | 41012 ft | 323 kts | 10° |
| 2026-04-25 01:56 | 29.62816 | -80.16095 | 41016 ft | 334 kts | 11° |
| 2026-04-25 01:56 | 29.65085 | -80.15327 | 41014 ft | 345 kts | 11° |
| 2026-04-25 01:57 | 29.69806 | -80.13734 | 41012 ft | 366 kts | 11° |
| 2026-04-25 01:57 | 29.72279 | -80.12898 | 41010 ft | 375 kts | 11° |
| 2026-04-25 01:58 | 29.77401 | -80.11166 | 41006 ft | 392 kts | 12° |
| 2026-04-25 01:58 | 29.82745 | -80.09345 | 41009 ft | 406 kts | 12° |
| 2026-04-25 01:59 | 29.88083 | -80.06828 | 41003 ft | 425 kts | 25° |
| 2026-04-25 01:59 | 29.93211 | -80.03234 | 41004 ft | 436 kts | 28° |
| 2026-04-25 02:00 | 29.98308 | -79.99437 | 41007 ft | 431 kts | 29° |
| 2026-04-25 02:00 | 30.03279 | -79.95684 | 41001 ft | 422 kts | 29° |
| 2026-04-25 02:01 | 30.08130 | -79.92032 | 40993 ft | 415 kts | 29° |
| 2026-04-25 02:01 | 30.12943 | -79.88415 | 40986 ft | 409 kts | 29° |
| 2026-04-25 02:02 | 30.17681 | -79.84849 | 40988 ft | 404 kts | 29° |
| 2026-04-25 02:02 | 30.22366 | -79.81318 | 40988 ft | 400 kts | 29° |
| 2026-04-25 02:03 | 30.27012 | -79.77823 | 40984 ft | 396 kts | 29° |
| 2026-04-25 02:03 | 30.31638 | -79.74387 | 40983 ft | 394 kts | 29° |
| 2026-04-25 02:04 | 30.36240 | -79.70976 | 40991 ft | 391 kts | 29° |
| 2026-04-25 02:04 | 30.40819 | -79.67584 | 40991 ft | 390 kts | 29° |
| 2026-04-25 02:05 | 30.45360 | -79.64221 | 40991 ft | 388 kts | 29° |
| 2026-04-25 02:05 | 30.49907 | -79.60851 | 40989 ft | 387 kts | 29° |
| 2026-04-25 02:06 | 30.54433 | -79.57495 | 41001 ft | 386 kts | 29° |
| 2026-04-25 02:06 | 30.58941 | -79.54171 | 40996 ft | 385 kts | 28° |
| 2026-04-25 02:07 | 30.63466 | -79.50845 | 40995 ft | 384 kts | 28° |
| 2026-04-25 02:07 | 30.67983 | -79.47526 | 40993 ft | 384 kts | 29° |
| 2026-04-25 02:08 | 30.72498 | -79.44208 | 40991 ft | 383 kts | 28° |